Laukaa, Finland
Kieli:  Suomi
CurCond
Päivitetty24/01/2021 14:57 
 

Lähistön Lentoasemien Säätiloja:

 

EFJY - Jyvaskyla (mil/C,) Finland
Etäisyys Sääasemalta: PKo 21km
Päivitetty: 24/01/2021 14:50
Heikko jäätävä, Sade, Pilvistä
Heikko jäätävä, Sade, Pilvistä
 Tuulen suunta IKa
Tuuli: IKa 6 km/h
Lämpötila: 0°C
Kastepiste: 0°C
Ilmankosteus: 100%
Ilmanpaine: 995 hPa
Yhteenveto: Heikko jäätävä, Sade
Pilvisyys: Pilvistä
Näkyvyys: 5 km
Pilvisyystiedot: Pilvistä 91 m
2021/01/24 12:50 EFJY 241250Z AUTO 11003KT 5000 -FZRA OVC003 M00/M00 Q0995
EFHA - Halli (fin-Afb), Finland
Etäisyys Sääasemalta: Lo 56km
Päivitetty: 24/01/2021 14:20
Sumua, Pilvistä
Sumua, Pilvistä
 Tuulen suunta IKa
Tuuli: IKa 4 km/h
Lämpötila: 0°C
Kastepiste: 0°C
Ilmankosteus: 100%
Ilmanpaine: 994 hPa
Yhteenveto: Sumua
Pilvisyys: Pilvistä
Näkyvyys: 3 km
Pilvisyystiedot: Pilvistä 61 m
2021/01/24 12:20 EFHA 241220Z AUTO 11002KT 2900 BR OVC002 M00/M00 Q0994
EFMI - Mikkeli, Finland
Etäisyys Sääasemalta: IKa 105km
Päivitetty: 24/01/2021 14:20
Sumua, Pilvistä
Sumua, Pilvistä
 Tuulen suunta IKa
Tuuli: IKa 7 km/h
Lämpötila: 1°C
Tuulen purevuus: -2°C
Kastepiste: 1°C
Ilmankosteus: 100%
Ilmanpaine: 996 hPa
Yhteenveto: Sumua
Pilvisyys: Pilvistä
Näkyvyys: 0 km
Pilvisyystiedot: Pilvistä 61 m
2021/01/24 12:20 EFMI 241220Z AUTO 12004KT 0250 FG VV002 01/01 Q0996
 
EFTP - Tampere/Pirkkala, Finland
Etäisyys Sääasemalta: Lo 135km
Päivitetty: 24/01/2021 14:20
Heikkoa Lumisadetta, Pilvistä
Heikkoa Lumisadetta, Pilvistä
 Tuulen suunta varies
Tuuli: varies 4 km/h
Lämpötila: 0°C
Kastepiste: 0°C
Ilmankosteus: 100%
Ilmanpaine: 994 hPa
Yhteenveto: Heikkoa Lumisadetta
Pilvisyys: Pilvistä
Näkyvyys: 5 km
Pilvisyystiedot: Enimmäkseen pilvistä 122 m
Pilvistä 610 m
2021/01/24 12:20 EFTP 241220Z AUTO VRB02KT 5000 -SN BKN004 OVC020 00/M00 Q0994
EFKU - Kuopio (mil/Civ), Finland
Etäisyys Sääasemalta: Ko 146km
Päivitetty: 24/01/2021 14:20
Heikko jäätävä, Tihku, Luminen, Pilvistä
Heikko jäätävä, Tihku, Luminen, Pilvistä
 Tuulen suunta I
Tuuli: I 7 km/h
Lämpötila: 0°C
Tuulen purevuus: -3°C
Kastepiste: 0°C
Ilmankosteus: 100%
Ilmanpaine: 996 hPa
Yhteenveto: Heikko jäätävä, Tihku, Luminen
Pilvisyys: Pilvistä
Näkyvyys: 2 km
Pilvisyystiedot: Pilvistä 61 m
2021/01/24 12:20 EFKU 241220Z AUTO 10004KT 2200 -FZDZSN OVC002 00/M00 Q0996
EFSI - Seinajoki-Ilmajo, Finland
Etäisyys Sääasemalta: LLu 149km
Päivitetty: 24/01/2021 14:50
Pilvistä
Pilvistä
 Tuulen suunta I
Tuuli: I 2 km/h
Lämpötila: 1°C
Kastepiste: 1°C
Ilmankosteus: 100%
Ilmanpaine: 995 hPa
Pilvisyys: Pilvistä
Näkyvyys: 10 km
Pilvisyystiedot: Joitain Pilviä 91 m
Enimmäkseen pilvistä 152 m
Pilvistä 213 m
2021/01/24 12:50 EFSI 241250Z AUTO 08001KT 9999 FEW003 BKN005 OVC007 01/01 Q0995